Time;durP1;ratioP1;P1;durP2;ratioP2;P2;SDS_P1;SDS_P2;PMS_P1;PMS_P2;Temp;Humidity;BMP_temperature;BMP_pressure;BME280_temperature;BME280_humidity;BME280_pressure;Samples;Min_cycle;Max_cycle;Signal;HPM_P1;HPM_P2
2023/03/23 00:01:04;;;;;;;;;;;;;;;20.12;41.42;100993.40;101484;1316;73469;-82
2023/03/23 00:03:31;;;;;;;;;;;;;;;20.12;41.54;100989.66;101467;1314;63410;-82
2023/03/23 00:06:02;;;;;;;;;;;;;;;20.12;41.44;100990.01;101484;1314;62247;-82
2023/03/23 00:08:28;;;;;;;;;;;;;;;20.13;41.50;100989.98;101409;1312;62312;-82
2023/03/23 00:10:56;;;;;;;;;;;;;;;20.12;41.45;100987.50;101471;1318;62233;-82
2023/03/23 00:13:23;;;;;;;;;;;;;;;20.13;41.40;100988.33;101398;1311;74754;-82
2023/03/23 00:15:58;;;;;;;;;;;;;;;20.12;41.44;100988.91;101465;1314;62303;-81
2023/03/23 00:18:23;;;;;;;;;;;;;;;20.13;41.38;100989.77;101504;1312;63394;-81
2023/03/23 00:20:50;;;;;;;;;;;;;;;20.13;41.33;100987.65;101391;1318;62220;-82
2023/03/23 00:23:18;;;;;;;;;;;;;;;20.12;41.37;100984.47;101502;1314;62146;-82
2023/03/23 00:25:56;;;;;;;;;;;;;;;20.13;41.45;100984.96;101510;1315;62127;-82
2023/03/23 00:28:24;;;;;;;;;;;;;;;20.13;41.44;100982.64;101514;1316;62254;-82
2023/03/23 00:30:56;;;;;;;;;;;;;;;20.12;41.35;100978.39;101480;1314;72622;-82
2023/03/23 00:33:23;;;;;;;;;;;;;;;20.13;41.46;100978.88;101534;1318;75676;-82
2023/03/23 00:35:52;;;;;;;;;;;;;;;20.12;41.37;100980.17;101463;1314;62246;-81
2023/03/23 00:38:27;;;;;;;;;;;;;;;20.13;41.44;100980.28;101526;1311;62219;-81
2023/03/23 00:40:53;;;;;;;;;;;;;;;20.13;41.32;100982.27;101440;1314;72600;-81
2023/03/23 00:43:19;;;;;;;;;;;;;;;20.13;41.37;100977.61;101484;1312;76457;-81
2023/03/23 00:45:49;;;;;;;;;;;;;;;20.14;41.38;100980.62;101463;1325;62254;-82
2023/03/23 00:48:14;;;;;;;;;;;;;;;20.14;41.30;100976.83;101518;1314;62142;-82
2023/03/23 00:50:40;;;;;;;;;;;;;;;20.14;41.35;100972.94;101655;1314;62314;-81
2023/03/23 00:53:05;;;;;;;;;;;;;;;20.14;41.40;100968.45;101884;1315;62315;-81
2023/03/23 00:55:31;;;;;;;;;;;;;;;20.14;41.37;100966.85;101548;1311;62234;-81
2023/03/23 00:57:57;;;;;;;;;;;;;;;20.14;41.27;100963.64;101469;1317;62248;-81
2023/03/23 01:00:22;;;;;;;;;;;;;;;20.14;41.35;100961.27;101497;1313;62283;-82
2023/03/23 01:02:48;;;;;;;;;;;;;;;20.14;41.24;100957.36;101410;1317;62281;-82
2023/03/23 01:05:15;;;;;;;;;;;;;;;20.14;41.38;100954.67;101342;1317;62855;-82
2023/03/23 01:07:43;;;;;;;;;;;;;;;20.14;41.22;100956.46;101479;1314;63370;-81
2023/03/23 01:10:12;;;;;;;;;;;;;;;20.15;41.27;100955.90;101456;1311;62803;-81
2023/03/23 01:12:38;;;;;;;;;;;;;;;20.14;41.25;100958.60;101548;1314;72800;-81
2023/03/23 01:15:05;;;;;;;;;;;;;;;20.14;41.25;100956.63;101479;1314;62150;-82
2023/03/23 01:17:30;;;;;;;;;;;;;;;20.14;41.26;100953.08;101456;1317;62325;-82
2023/03/23 01:19:56;;;;;;;;;;;;;;;20.14;41.23;100951.45;101528;1314;62319;-82
2023/03/23 01:22:21;;;;;;;;;;;;;;;20.14;41.29;100950.38;101498;1315;62195;-83
2023/03/23 01:24:47;;;;;;;;;;;;;;;20.15;41.16;100950.17;101466;1315;62248;-81
2023/03/23 01:27:13;;;;;;;;;;;;;;;20.14;41.21;100949.83;101507;1311;63308;-81
2023/03/23 01:29:38;;;;;;;;;;;;;;;20.15;41.30;100948.73;101404;1312;62255;-82
2023/03/23 01:32:04;;;;;;;;;;;;;;;20.15;41.21;100948.58;101374;1317;62254;-81
2023/03/23 01:34:29;;;;;;;;;;;;;;;20.15;41.19;100950.52;101401;1317;62537;-82
2023/03/23 01:36:55;;;;;;;;;;;;;;;20.15;41.21;100951.59;101446;1311;62287;-81
2023/03/23 01:39:24;;;;;;;;;;;;;;;20.15;41.21;100946.06;101431;1315;63808;-81
2023/03/23 01:41:49;;;;;;;;;;;;;;;20.14;41.15;100943.04;101497;1311;63103;-81
2023/03/23 01:44:15;;;;;;;;;;;;;;;20.15;41.23;100943.21;101452;1316;62219;-81
2023/03/23 01:46:42;;;;;;;;;;;;;;;20.15;41.09;100943.73;101514;1314;62316;-82
2023/03/23 01:49:09;;;;;;;;;;;;;;;20.15;41.20;100947.11;101451;1318;63196;-82
2023/03/23 01:51:36;;;;;;;;;;;;;;;20.15;41.18;100947.64;101463;1317;62255;-81
2023/03/23 01:54:03;;;;;;;;;;;;;;;20.15;41.10;100945.70;101524;1311;62321;-81
2023/03/23 01:56:29;;;;;;;;;;;;;;;20.15;41.15;100946.94;101498;1314;62267;-81
2023/03/23 01:58:58;;;;;;;;;;;;;;;20.16;41.00;100947.42;101571;1312;63419;-82
2023/03/23 02:01:26;;;;;;;;;;;;;;;20.15;41.15;100948.35;101437;1316;62216;-82
2023/03/23 02:03:53;;;;;;;;;;;;;;;20.15;41.17;100949.98;101374;1316;72444;-82
2023/03/23 02:06:18;;;;;;;;;;;;;;;20.16;41.09;100952.61;101423;1315;62150;-82
2023/03/23 02:08:44;;;;;;;;;;;;;;;20.16;41.06;100953.67;101514;1312;62238;-82
2023/03/23 02:11:15;;;;;;;;;;;;;;;20.16;41.09;100957.60;101467;1312;63059;-82
2023/03/23 02:13:41;;;;;;;;;;;;;;;20.16;41.20;100957.25;101465;1314;73366;-83
2023/03/23 02:16:26;;;;;;;;;;;;;;;20.16;41.11;100963.84;101493;1316;63330;-82
2023/03/23 02:18:57;;;;;;;;;;;;;;;20.16;40.98;100965.80;101482;1312;62167;-83
2023/03/23 02:21:46;;;;;;;;;;;;;;;20.16;41.00;100964.20;101471;1311;62651;-82
2023/03/23 02:24:30;;;;;;;;;;;;;;;20.16;41.03;100962.96;101497;1314;73653;-82
2023/03/23 02:27:01;;;;;;;;;;;;;;;20.16;40.99;100962.62;101483;1310;76242;-82
2023/03/23 02:29:30;;;;;;;;;;;;;;;20.16;41.07;100963.83;101464;1311;63208;-83
2023/03/23 02:32:07;;;;;;;;;;;;;;;20.16;41.02;100963.11;101529;1313;62210;-82
2023/03/23 02:34:42;;;;;;;;;;;;;;;20.16;41.05;100965.98;101505;1314;73292;-81
2023/03/23 02:37:20;;;;;;;;;;;;;;;20.17;41.08;100968.45;101448;1314;75193;-82
2023/03/23 02:39:47;;;;;;;;;;;;;;;20.17;41.03;100965.58;101296;1316;62098;-81
2023/03/23 02:42:13;;;;;;;;;;;;;;;20.17;41.03;100961.83;101385;1315;62870;-83
2023/03/23 02:44:40;;;;;;;;;;;;;;;20.17;41.00;100962.73;101507;1318;72006;-82
2023/03/23 02:47:07;;;;;;;;;;;;;;;20.17;40.97;100963.07;101320;1315;75275;-82
2023/03/23 02:49:35;;;;;;;;;;;;;;;20.17;40.94;100964.51;101284;1310;63077;-81
2023/03/23 02:52:02;;;;;;;;;;;;;;;20.17;41.01;100965.95;101425;1312;62249;-82
2023/03/23 02:54:28;;;;;;;;;;;;;;;20.17;40.99;100966.99;101281;1310;72566;-82
2023/03/23 02:56:53;;;;;;;;;;;;;;;20.18;41.00;100969.27;101470;1315;63065;-82
2023/03/23 02:59:19;;;;;;;;;;;;;;;20.18;41.03;100974.10;101438;1314;62257;-82
2023/03/23 03:01:46;;;;;;;;;;;;;;;20.17;40.94;100975.35;101396;1311;62992;-82
2023/03/23 03:04:16;;;;;;;;;;;;;;;20.18;40.95;100972.11;101498;1315;63074;-81
2023/03/23 03:06:51;;;;;;;;;;;;;;;20.17;40.86;100972.52;101414;1314;75350;-81
2023/03/23 03:09:32;;;;;;;;;;;;;;;20.18;40.90;100971.05;101476;1310;62299;-81
2023/03/23 03:11:59;;;;;;;;;;;;;;;20.18;40.87;100974.41;101559;1311;62152;-81
2023/03/23 03:14:27;;;;;;;;;;;;;;;20.18;40.89;100975.48;101527;1312;71406;-82
2023/03/23 03:16:53;;;;;;;;;;;;;;;20.18;40.92;100978.70;101483;1312;76437;-82
2023/03/23 03:19:20;;;;;;;;;;;;;;;20.18;40.97;100983.69;101634;1311;62302;-81
2023/03/23 03:21:46;;;;;;;;;;;;;;;20.18;40.83;100983.33;101504;1312;62207;-81
2023/03/23 03:24:14;;;;;;;;;;;;;;;20.19;40.90;100983.33;101505;1316;62903;-81
2023/03/23 03:26:40;;;;;;;;;;;;;;;20.19;40.79;100985.30;101498;1311;75306;-81
2023/03/23 03:29:06;;;;;;;;;;;;;;;20.19;40.94;100987.94;101476;1314;63098;-81
2023/03/23 03:31:33;;;;;;;;;;;;;;;20.19;40.93;100991.70;101515;1312;62252;-81
2023/03/23 03:34:03;;;;;;;;;;;;;;;20.19;40.76;100995.07;101538;1314;62232;-82
2023/03/23 03:36:34;;;;;;;;;;;;;;;20.19;40.70;100994.18;101492;1310;75418;-81
2023/03/23 03:39:09;;;;;;;;;;;;;;;20.19;40.84;100993.45;101415;1311;62292;-81
2023/03/23 03:41:35;;;;;;;;;;;;;;;20.20;40.87;100993.26;101427;1317;62237;-81
2023/03/23 03:44:01;;;;;;;;;;;;;;;20.20;40.80;100993.62;101523;1312;63392;-81
2023/03/23 03:46:29;;;;;;;;;;;;;;;20.20;40.81;100994.67;101518;1315;62615;-81
2023/03/23 03:48:56;;;;;;;;;;;;;;;20.20;40.74;100991.44;101504;1315;62251;-82
2023/03/23 03:51:22;;;;;;;;;;;;;;;20.20;40.75;100993.96;101501;1317;62220;-82
2023/03/23 03:53:47;;;;;;;;;;;;;;;20.20;40.75;100996.29;101520;1314;63013;-81
2023/03/23 03:56:13;;;;;;;;;;;;;;;20.20;40.66;101002.02;101370;1312;63033;-81
2023/03/23 03:58:42;;;;;;;;;;;;;;;20.20;40.70;101003.08;101482;1310;62232;-82
2023/03/23 04:01:10;;;;;;;;;;;;;;;20.20;40.72;101000.56;101313;1314;62258;-81
2023/03/23 04:03:36;;;;;;;;;;;;;;;20.20;40.73;100999.31;101381;1311;72669;-81
2023/03/23 04:06:02;;;;;;;;;;;;;;;20.21;40.67;100996.95;101489;1317;62268;-81
2023/03/23 04:08:27;;;;;;;;;;;;;;;20.21;40.70;100992.84;101353;1311;63024;-81
2023/03/23 04:10:53;;;;;;;;;;;;;;;20.20;40.69;100998.59;101478;1314;62320;-81
2023/03/23 04:13:19;;;;;;;;;;;;;;;20.20;40.70;100999.29;101537;1315;62213;-82
2023/03/23 04:15:45;;;;;;;;;;;;;;;20.20;40.80;100998.41;101526;1317;62360;-82
2023/03/23 04:18:11;;;;;;;;;;;;;;;20.20;40.79;100994.30;101550;1311;75416;-82
2023/03/23 04:20:39;;;;;;;;;;;;;;;20.20;40.73;100993.74;101380;1311;63263;-81
2023/03/23 04:23:05;;;;;;;;;;;;;;;20.21;40.68;100993.91;101593;1310;62110;-81
2023/03/23 04:25:32;;;;;;;;;;;;;;;20.21;40.67;100996.05;101464;1312;62229;-82
2023/03/23 04:27:58;;;;;;;;;;;;;;;20.21;40.77;100999.09;101522;1311;75636;-81
2023/03/23 04:30:24;;;;;;;;;;;;;;;20.21;40.62;101001.06;101452;1312;62299;-81
2023/03/23 04:32:50;;;;;;;;;;;;;;;20.21;40.73;101004.27;101523;1309;62256;-81
2023/03/23 04:35:16;;;;;;;;;;;;;;;20.21;40.66;100999.61;101618;1312;62260;-83
2023/03/23 04:37:42;;;;;;;;;;;;;;;20.21;40.63;101000.67;101371;1317;62267;-81
2023/03/23 04:40:12;;;;;;;;;;;;;;;20.22;40.68;101003.10;101475;1311;62223;-80
2023/03/23 04:42:38;;;;;;;;;;;;;;;20.22;40.49;101004.88;101554;1311;62168;-81
2023/03/23 04:45:05;;;;;;;;;;;;;;;20.21;40.62;101005.34;101276;1311;62234;-81
2023/03/23 04:47:32;;;;;;;;;;;;;;;20.19;40.57;101008.11;101472;1311;75360;-82
2023/03/23 04:49:59;;;;;;;;;;;;;;;20.18;40.57;101010.54;101521;1311;62254;-82
2023/03/23 04:52:25;;;;;;;;;;;;;;;20.15;40.63;101006.83;101463;1312;62121;-83
2023/03/23 04:54:51;;;;;;;;;;;;;;;20.11;40.65;101006.84;101361;1317;63389;-82
2023/03/23 04:57:17;;;;;;;;;;;;;;;20.07;40.62;101007.80;101369;1312;63224;-82
2023/03/23 04:59:43;;;;;;;;;;;;;;;20.02;40.60;101010.46;101462;1316;62273;-82
2023/03/23 05:02:09;;;;;;;;;;;;;;;19.98;40.57;101014.29;101451;1315;63196;-82
2023/03/23 05:04:37;;;;;;;;;;;;;;;19.96;40.79;101019.41;101386;1316;63223;-82
2023/03/23 05:07:04;;;;;;;;;;;;;;;19.93;40.67;101019.97;101485;1311;62222;-82
2023/03/23 05:09:29;;;;;;;;;;;;;;;19.90;40.71;101021.42;101372;1312;62859;-82
2023/03/23 05:11:55;;;;;;;;;;;;;;;19.88;40.70;101020.48;101551;1310;62603;-83
2023/03/23 05:14:21;;;;;;;;;;;;;;;19.86;40.70;101016.09;101432;1325;62616;-83
2023/03/23 05:16:48;;;;;;;;;;;;;;;19.86;40.76;101019.00;101542;1314;62321;-81
2023/03/23 05:19:14;;;;;;;;;;;;;;;19.84;40.57;101019.81;101643;1316;75225;-81
2023/03/23 05:21:40;;;;;;;;;;;;;;;19.80;40.54;101016.70;101562;1311;63073;-82
2023/03/23 05:24:06;;;;;;;;;;;;;;;19.75;40.59;101019.99;101456;1311;62781;-82
2023/03/23 05:26:32;;;;;;;;;;;;;;;19.71;40.51;101024.52;101536;1311;62229;-82
2023/03/23 05:28:58;;;;;;;;;;;;;;;19.68;40.47;101029.70;101608;1316;62183;-82
2023/03/23 05:31:24;;;;;;;;;;;;;;;19.65;40.53;101029.34;101568;1311;62318;-80
2023/03/23 05:33:51;;;;;;;;;;;;;;;19.63;40.48;101029.98;101776;1309;62149;-80
2023/03/23 05:36:17;;;;;;;;;;;;;;;19.61;40.52;101031.90;101742;1312;62213;-81
2023/03/23 05:38:45;;;;;;;;;;;;;;;19.59;40.49;101032.74;101648;1315;62315;-81
2023/03/23 05:41:11;;;;;;;;;;;;;;;19.57;40.52;101036.27;101684;1312;76468;-81
2023/03/23 05:43:37;;;;;;;;;;;;;;;19.54;40.57;101038.21;102147;1312;62139;-81
2023/03/23 05:46:02;;;;;;;;;;;;;;;19.54;40.56;101038.44;101933;1314;62210;-81
2023/03/23 05:48:28;;;;;;;;;;;;;;;19.52;40.57;101043.86;102318;1311;62239;-81
2023/03/23 05:50:54;;;;;;;;;;;;;;;19.51;40.55;101045.16;102622;1311;60525;-81
2023/03/23 05:53:20;;;;;;;;;;;;;;;19.49;40.57;101051.89;102370;1312;62220;-81
2023/03/23 05:55:46;;;;;;;;;;;;;;;19.48;40.64;101050.23;102863;1311;62599;-81
2023/03/23 05:58:13;;;;;;;;;;;;;;;19.46;40.72;101054.92;103125;1309;62026;-81
2023/03/23 06:00:38;;;;;;;;;;;;;;;19.45;40.64;101057.52;103215;1311;62133;-80
2023/03/23 06:03:04;;;;;;;;;;;;;;;19.40;40.62;101059.77;104212;1310;60092;-81
2023/03/23 06:05:29;;;;;;;;;;;;;;;19.35;40.70;101063.48;103680;1308;62327;-80
2023/03/23 06:07:55;;;;;;;;;;;;;;;19.31;40.86;101064.96;102624;1310;60774;-80
2023/03/23 06:10:23;;;;;;;;;;;;;;;19.29;40.90;101064.72;102743;1312;62152;-81
2023/03/23 06:12:49;;;;;;;;;;;;;;;19.31;40.99;101066.58;102471;1314;71691;-81
2023/03/23 06:15:14;;;;;;;;;;;;;;;19.32;40.86;101062.38;102727;1311;63433;-81
2023/03/23 06:17:40;;;;;;;;;;;;;;;19.34;40.94;101061.39;102764;1308;62398;-81
2023/03/23 06:20:09;;;;;;;;;;;;;;;19.36;40.84;101065.20;102607;1308;62123;-80
2023/03/23 06:22:39;;;;;;;;;;;;;;;19.37;40.89;101066.17;102625;1314;71888;-80
2023/03/23 06:25:06;;;;;;;;;;;;;;;19.38;40.93;101069.34;102340;1311;75339;-80
2023/03/23 06:27:31;;;;;;;;;;;;;;;19.39;40.84;101068.76;102664;1312;62139;-80
2023/03/23 06:29:57;;;;;;;;;;;;;;;19.40;40.92;101071.20;102416;1309;62322;-80
2023/03/23 06:32:24;;;;;;;;;;;;;;;19.41;40.88;101070.95;104301;1311;60401;-81
2023/03/23 06:34:50;;;;;;;;;;;;;;;19.42;40.85;101076.27;102926;1310;62158;-80
2023/03/23 06:37:16;;;;;;;;;;;;;;;19.42;40.89;101078.05;102445;1311;62100;-80
2023/03/23 06:39:42;;;;;;;;;;;;;;;19.43;40.82;101080.67;102609;1314;62152;-81
2023/03/23 06:42:11;;;;;;;;;;;;;;;19.42;40.83;101080.51;102450;1314;62261;-81
2023/03/23 06:44:37;;;;;;;;;;;;;;;19.43;40.86;101081.50;102647;1310;60137;-81
2023/03/23 06:47:03;;;;;;;;;;;;;;;19.44;40.87;101083.64;102676;1308;62584;-81
2023/03/23 06:49:28;;;;;;;;;;;;;;;19.44;40.92;101087.21;103045;1311;62133;-82
2023/03/23 06:51:55;;;;;;;;;;;;;;;19.45;40.87;101088.95;103048;1311;62220;-81
2023/03/23 06:54:22;;;;;;;;;;;;;;;19.46;40.96;101088.38;103130;1315;62286;-81
2023/03/23 06:56:48;;;;;;;;;;;;;;;19.46;41.07;101085.67;103295;1310;62382;-81
2023/03/23 06:59:16;;;;;;;;;;;;;;;19.47;41.11;101087.60;103156;1311;59997;-81
2023/03/23 07:01:41;;;;;;;;;;;;;;;19.47;41.20;101088.84;103203;1311;62235;-81
2023/03/23 07:04:07;;;;;;;;;;;;;;;19.46;41.14;101086.35;102619;1312;675896;-82
2023/03/23 07:06:32;;;;;;;;;;;;;;;19.44;41.12;101088.09;103423;1309;62213;-81
2023/03/23 07:09:00;;;;;;;;;;;;;;;19.43;41.29;101089.02;102957;1309;61249;-81
2023/03/23 07:11:26;;;;;;;;;;;;;;;19.44;41.36;101088.44;103010;1312;60224;-81
2023/03/23 07:13:53;;;;;;;;;;;;;;;19.48;41.44;101085.95;102810;1308;72296;-80
2023/03/23 07:16:18;;;;;;;;;;;;;;;19.51;41.46;101090.52;102865;1314;64161;-80
2023/03/23 07:18:44;;;;;;;;;;;;;;;19.54;41.28;101091.23;102881;1311;62248;-80
2023/03/23 07:21:12;;;;;;;;;;;;;;;19.57;41.34;101086.41;102875;1308;62188;-79
2023/03/23 07:23:40;;;;;;;;;;;;;;;19.63;41.24;101091.09;102705;1312;62164;-79
2023/03/23 07:26:07;;;;;;;;;;;;;;;19.66;41.16;101091.97;102734;1308;76498;-79
2023/03/23 07:28:33;;;;;;;;;;;;;;;19.70;41.15;101089.73;102108;1313;62034;-79
2023/03/23 07:31:00;;;;;;;;;;;;;;;19.74;41.16;101085.23;101994;1311;61809;-82
2023/03/23 07:33:26;;;;;;;;;;;;;;;19.77;41.04;101085.41;103020;1313;62240;-80
2023/03/23 07:35:52;;;;;;;;;;;;;;;19.79;41.06;101088.33;102725;1311;62524;-79
2023/03/23 07:38:17;;;;;;;;;;;;;;;19.81;40.97;101090.39;102802;1310;60255;-80
2023/03/23 07:40:43;;;;;;;;;;;;;;;19.80;40.90;101092.37;102687;1311;62198;-80
2023/03/23 07:43:09;;;;;;;;;;;;;;;19.78;40.90;101093.71;102553;1311;62068;-80
2023/03/23 07:45:35;;;;;;;;;;;;;;;19.76;40.85;101091.85;102602;1312;62159;-80
2023/03/23 07:48:01;;;;;;;;;;;;;;;19.72;40.94;101090.88;102864;1312;76162;-80
2023/03/23 07:50:26;;;;;;;;;;;;;;;19.68;41.05;101096.14;102840;1311;62272;-80
2023/03/23 07:52:56;;;;;;;;;;;;;;;19.65;40.93;101098.13;103174;1311;60429;-82
2023/03/23 07:55:21;;;;;;;;;;;;;;;19.52;40.91;101097.06;103371;1311;72629;-81
2023/03/23 07:57:48;;;;;;;;;;;;;;;19.44;41.17;101100.23;103259;1311;60384;-82
2023/03/23 08:00:23;;;;;;;;;;;;;;;19.38;41.02;101094.84;103136;1310;61011;-81
2023/03/23 08:02:50;;;;;;;;;;;;;;;19.36;41.14;101091.83;103159;1311;60404;-82
2023/03/23 08:05:16;;;;;;;;;;;;;;;19.35;41.32;101093.61;103273;1309;73813;-82
2023/03/23 08:07:42;;;;;;;;;;;;;;;19.37;41.34;101094.03;103077;1311;62348;-83
2023/03/23 08:10:11;;;;;;;;;;;;;;;19.40;41.43;101088.30;103143;1311;62177;-82
2023/03/23 08:12:38;;;;;;;;;;;;;;;19.41;41.55;101092.55;103209;1308;62195;-81
2023/03/23 08:15:04;;;;;;;;;;;;;;;19.38;41.56;101086.87;102975;1311;62104;-81
2023/03/23 08:17:31;;;;;;;;;;;;;;;19.34;41.47;101085.13;102842;1311;62331;-81
2023/03/23 08:19:57;;;;;;;;;;;;;;;19.33;41.55;101088.56;102691;1311;62314;-81
2023/03/23 08:22:24;;;;;;;;;;;;;;;19.36;41.60;101088.77;102664;1310;63737;-81
2023/03/23 08:24:50;;;;;;;;;;;;;;;19.38;41.63;101088.25;102823;1308;62152;-81
2023/03/23 08:27:15;;;;;;;;;;;;;;;19.40;41.70;101086.40;102737;1311;63474;-81
2023/03/23 08:29:41;;;;;;;;;;;;;;;19.41;41.62;101087.55;102405;1311;62241;-80
2023/03/23 08:32:06;;;;;;;;;;;;;;;19.42;41.59;101085.35;102359;1312;62302;-80
2023/03/23 08:34:32;;;;;;;;;;;;;;;19.43;41.52;101087.77;102537;1311;62098;-81
2023/03/23 08:36:58;;;;;;;;;;;;;;;19.43;41.50;101085.83;102493;1311;62341;-80
2023/03/23 08:39:24;;;;;;;;;;;;;;;19.43;41.52;101086.89;102445;1311;62133;-81
2023/03/23 08:41:51;;;;;;;;;;;;;;;19.44;41.55;101082.56;102534;1316;62222;-80
2023/03/23 08:44:16;;;;;;;;;;;;;;;19.44;41.57;101083.80;102361;1310;60657;-80
2023/03/23 08:46:42;;;;;;;;;;;;;;;19.45;41.56;101085.71;102476;1311;62717;-81
2023/03/23 08:49:09;;;;;;;;;;;;;;;19.46;41.69;101081.73;102667;1312;62136;-80
2023/03/23 08:51:35;;;;;;;;;;;;;;;19.46;41.73;101081.71;102499;1310;62915;-80
2023/03/23 08:54:01;;;;;;;;;;;;;;;19.47;41.71;101082.41;102806;1312;62149;-80
2023/03/23 08:56:27;;;;;;;;;;;;;;;19.46;41.63;101082.94;102473;1312;62095;-80
2023/03/23 08:58:53;;;;;;;;;;;;;;;19.48;41.76;101085.92;104286;1308;60296;-80
2023/03/23 09:01:18;;;;;;;;;;;;;;;19.48;41.79;101084.27;103249;1310;73287;-80
2023/03/23 09:03:44;;;;;;;;;;;;;;;19.49;41.86;101084.96;103126;1314;62181;-81
2023/03/23 09:06:12;;;;;;;;;;;;;;;19.44;41.72;101085.94;102944;1308;61979;-81
2023/03/23 09:08:38;;;;;;;;;;;;;;;19.42;41.81;101089.84;103035;1311;62247;-80
2023/03/23 09:11:04;;;;;;;;;;;;;;;19.37;41.82;101085.26;103031;1311;62120;-81
2023/03/23 09:13:30;;;;;;;;;;;;;;;19.36;42.04;101083.92;103072;1311;62187;-81
2023/03/23 09:15:57;;;;;;;;;;;;;;;19.38;42.18;101082.20;102849;1308;60320;-81
2023/03/23 09:18:22;;;;;;;;;;;;;;;19.41;42.28;101084.15;103271;1312;62262;-80
2023/03/23 09:20:49;;;;;;;;;;;;;;;19.41;42.30;101081.65;102864;1311;62328;-81
2023/03/23 09:23:15;;;;;;;;;;;;;;;19.40;42.33;101082.59;103847;1311;62226;-81
2023/03/23 09:25:40;;;;;;;;;;;;;;;19.43;42.46;101081.91;102933;1310;60474;-81
2023/03/23 09:28:06;;;;;;;;;;;;;;;19.45;42.43;101079.64;102725;1311;63280;-81
2023/03/23 09:30:33;;;;;;;;;;;;;;;19.46;42.36;101083.33;102759;1311;62047;-81
2023/03/23 09:33:02;;;;;;;;;;;;;;;19.47;42.28;101079.67;104113;1311;74473;-81
2023/03/23 09:35:31;;;;;;;;;;;;;;;19.48;42.45;101080.19;104429;1311;60907;-81
2023/03/23 09:38:00;;;;;;;;;;;;;;;19.50;42.39;101079.20;104304;1308;60526;-81
2023/03/23 09:40:30;;;;;;;;;;;;;;;19.51;42.43;101079.64;104395;1311;73571;-81
2023/03/23 09:43:04;;;;;;;;;;;;;;;19.52;42.46;101079.77;104305;1311;76457;-81
2023/03/23 09:45:36;;;;;;;;;;;;;;;19.52;42.51;101077.41;103434;1311;60542;-81
2023/03/23 09:48:27;;;;;;;;;;;;;;;19.54;42.49;101075.91;102715;1314;62087;-81
2023/03/23 09:50:57;;;;;;;;;;;;;;;19.54;42.48;101071.42;102380;1311;73636;-81
2023/03/23 09:53:26;;;;;;;;;;;;;;;19.55;42.46;101067.48;102396;1310;75383;-80
2023/03/23 09:55:53;;;;;;;;;;;;;;;19.54;42.44;101064.09;102579;1309;62176;-81
2023/03/23 09:58:23;;;;;;;;;;;;;;;19.55;42.61;101065.67;102806;1309;61992;-80
2023/03/23 10:01:00;;;;;;;;;;;;;;;19.54;42.53;101057.33;103195;1312;71414;-81
2023/03/23 10:03:26;;;;;;;;;;;;;;;19.51;42.42;101059.32;103042;1310;74149;-81
2023/03/23 10:05:53;;;;;;;;;;;;;;;19.48;42.50;101064.12;103325;1314;61282;-81
2023/03/23 10:08:21;;;;;;;;;;;;;;;19.51;42.93;101059.48;103339;1309;60186;-81
2023/03/23 10:10:53;;;;;;;;;;;;;;;19.58;42.97;101060.46;103395;1311;73467;-80
2023/03/23 10:13:25;;;;;;;;;;;;;;;19.64;43.24;101056.39;103184;1312;75218;-81
2023/03/23 10:15:50;;;;;;;;;;;;;;;19.63;43.10;101056.09;103124;1311;60104;-81
2023/03/23 10:18:22;;;;;;;;;;;;;;;19.60;43.12;101056.45;103189;1310;62138;-80
2023/03/23 10:20:50;;;;;;;;;;;;;;;19.58;43.06;101054.04;103350;1310;71771;-81
2023/03/23 10:23:20;;;;;;;;;;;;;;;19.56;42.87;101051.11;103437;1310;76322;-82
2023/03/23 10:25:51;;;;;;;;;;;;;;;19.55;42.94;101051.02;103398;1308;62069;-81
2023/03/23 10:28:21;;;;;;;;;;;;;;;19.56;42.96;101048.63;103450;1311;62127;-82
2023/03/23 10:30:52;;;;;;;;;;;;;;;19.60;43.04;101048.71;103480;1311;71170;-84
2023/03/23 10:33:25;;;;;;;;;;;;;;;19.63;43.08;101048.44;103245;1314;75297;-81
2023/03/23 10:36:05;;;;;;;;;;;;;;;19.61;42.90;101048.51;102937;1311;62370;-81
2023/03/23 10:38:42;;;;;;;;;;;;;;;19.57;42.87;101044.08;102922;1309;60807;-82
2023/03/23 10:41:11;;;;;;;;;;;;;;;19.54;42.70;101039.83;102985;1311;73613;-82
2023/03/23 10:43:37;;;;;;;;;;;;;;;19.52;42.78;101037.08;104341;1308;75924;-82
2023/03/23 10:46:04;;;;;;;;;;;;;;;19.51;42.58;101036.45;104343;1308;60208;-82
2023/03/23 10:48:32;;;;;;;;;;;;;;;19.49;42.41;101031.55;102955;1308;62035;-82
2023/03/23 10:51:00;;;;;;;;;;;;;;;19.51;42.54;101029.98;103304;1310;73719;-82
2023/03/23 10:53:30;;;;;;;;;;;;;;;19.55;42.76;101030.11;103026;1311;75140;-81
2023/03/23 10:55:56;;;;;;;;;;;;;;;19.58;42.74;101028.69;102996;1312;62146;-82
2023/03/23 10:58:23;;;;;;;;;;;;;;;19.62;42.85;101023.09;102944;1311;62322;-82
2023/03/23 11:00:48;;;;;;;;;;;;;;;19.65;42.84;101024.20;103057;1311;62118;-82
2023/03/23 11:03:15;;;;;;;;;;;;;;;19.63;42.64;101023.40;103158;1311;62028;-82
2023/03/23 11:05:45;;;;;;;;;;;;;;;19.55;42.46;101020.84;103445;1308;62218;-81
2023/03/23 11:08:21;;;;;;;;;;;;;;;19.44;42.37;101016.14;103498;1308;62107;-82
2023/03/23 11:10:52;;;;;;;;;;;;;;;19.37;42.29;101015.85;103505;1312;72569;-82
2023/03/23 11:13:20;;;;;;;;;;;;;;;19.33;42.19;101014.14;103222;1311;76207;-81
2023/03/23 11:15:46;;;;;;;;;;;;;;;19.30;42.15;101009.88;104245;1310;60964;-83
2023/03/23 11:18:19;;;;;;;;;;;;;;;19.32;42.10;101007.30;104165;1311;60991;-83
2023/03/23 11:20:48;;;;;;;;;;;;;;;19.32;42.08;101004.41;104161;1311;72344;-82
2023/03/23 11:23:22;;;;;;;;;;;;;;;19.33;41.99;101003.23;104160;1308;75615;-82
2023/03/23 11:25:53;;;;;;;;;;;;;;;19.35;41.87;101002.23;104352;1308;60091;-82
2023/03/23 11:28:19;;;;;;;;;;;;;;;19.33;41.79;100997.90;104288;1311;61403;-82
2023/03/23 11:30:44;;;;;;;;;;;;;;;19.33;41.72;100999.34;104449;1311;59903;-79
2023/03/23 11:33:10;;;;;;;;;;;;;;;19.35;41.68;101000.30;103170;1311;62171;-81
2023/03/23 11:35:36;;;;;;;;;;;;;;;19.35;41.65;100998.33;102732;1312;62194;-82
2023/03/23 11:38:02;;;;;;;;;;;;;;;19.36;41.47;101000.07;102921;1314;62112;-82
2023/03/23 11:40:31;;;;;;;;;;;;;;;19.37;41.44;101000.52;103143;1311;62205;-83
2023/03/23 11:42:58;;;;;;;;;;;;;;;19.37;41.36;101000.34;103020;1308;62132;-82
2023/03/23 11:45:33;;;;;;;;;;;;;;;19.38;41.35;100995.23;102850;1308;62105;-82
2023/03/23 11:48:01;;;;;;;;;;;;;;;19.41;41.29;100991.89;102874;1311;62120;-82
2023/03/23 11:50:28;;;;;;;;;;;;;;;19.41;41.18;100990.27;102832;1309;73454;-82
2023/03/23 11:53:13;;;;;;;;;;;;;;;19.39;41.05;100989.85;102793;1309;74987;-82
2023/03/23 11:55:45;;;;;;;;;;;;;;;19.40;41.08;100981.27;102903;1308;60580;-81
2023/03/23 11:58:12;;;;;;;;;;;;;;;19.39;41.03;100980.20;103227;1311;62001;-82
2023/03/23 12:00:40;;;;;;;;;;;;;;;19.35;40.91;100976.05;104168;1311;72668;-82
2023/03/23 12:03:26;;;;;;;;;;;;;;;19.32;40.99;100974.59;104048;1310;75052;-81
2023/03/23 12:05:54;;;;;;;;;;;;;;;19.31;40.81;100968.80;103535;1308;60731;-81
2023/03/23 12:08:30;;;;;;;;;;;;;;;19.31;40.86;100963.77;103364;1311;62140;-81
2023/03/23 12:10:56;;;;;;;;;;;;;;;19.31;40.77;100959.15;103232;1308;71931;-81
2023/03/23 12:13:27;;;;;;;;;;;;;;;19.32;40.84;100956.74;103494;1311;60389;-81
2023/03/23 12:15:53;;;;;;;;;;;;;;;19.35;40.82;100954.63;103149;1310;62342;-81
2023/03/23 12:18:38;;;;;;;;;;;;;;;19.33;40.59;100954.70;103323;1311;62107;-81
2023/03/23 12:21:04;;;;;;;;;;;;;;;19.28;40.62;100948.80;103087;1308;72530;-81
2023/03/23 12:23:48;;;;;;;;;;;;;;;19.28;40.61;100947.92;103073;1311;62254;-85
2023/03/23 12:26:26;;;;;;;;;;;;;;;19.29;40.58;100946.42;103079;1311;62185;-81
2023/03/23 12:29:10;;;;;;;;;;;;;;;19.29;40.46;100948.22;104393;1308;61459;-82